createdAt,value
2023-01-20T00:09:51.433Z,100
2023-01-20T00:29:55.618Z,100
2023-01-20T00:39:57.684Z,100
2023-01-20T00:49:59.764Z,100
2023-01-20T01:00:01.631Z,100
2023-01-20T01:10:03.803Z,100
2023-01-20T01:40:09.971Z,100
2023-01-20T02:40:23.681Z,100
2023-01-20T02:50:26.064Z,100
2023-01-20T03:10:30.970Z,100
2023-01-20T03:20:32.841Z,100
2023-01-20T03:23:11.125Z,100
2023-01-20T06:01:16.197Z,100
2023-01-20T06:11:18.054Z,100
2023-01-20T06:21:20.105Z,100
2023-01-20T06:31:22.647Z,100
2023-01-20T06:41:24.964Z,100
2023-01-20T06:51:27.009Z,100
2023-01-20T07:51:40.112Z,100
2023-01-20T08:11:43.836Z,100
2023-01-20T08:41:50.697Z,100
2023-01-20T08:51:53.068Z,100
2023-01-20T09:11:57.642Z,100
2023-01-20T09:42:04.160Z,100
2023-01-20T10:02:08.582Z,100
2023-01-20T10:12:10.561Z,100
2023-01-20T10:22:12.717Z,100
2023-01-20T10:52:19.166Z,100
2023-01-20T11:02:21.064Z,100
2023-01-20T11:12:23.534Z,99
2023-01-20T11:22:25.959Z,99
2023-01-20T11:32:28.256Z,99
2023-01-20T11:42:30.804Z,98
2023-01-20T11:52:33.198Z,97
2023-01-20T12:02:35.577Z,97
2023-01-20T12:12:37.768Z,95
2023-01-20T12:32:42.124Z,95
2023-01-20T12:42:44.280Z,93
2023-01-20T12:52:46.565Z,93
2023-01-20T13:02:48.929Z,93
2023-01-20T13:12:51.393Z,92
2023-01-20T13:22:53.848Z,92
2023-01-20T13:32:56.451Z,91
2023-01-20T13:42:58.211Z,90
2023-01-20T13:53:00.361Z,91
2023-01-20T14:03:02.628Z,90
2023-01-20T14:23:06.725Z,89
2023-01-20T14:33:09.366Z,89
2023-01-20T14:43:11.974Z,90
2023-01-20T14:53:14.446Z,90
2023-01-20T15:03:16.378Z,90
2023-01-20T15:13:18.092Z,91
2023-01-20T15:23:20.260Z,92
2023-01-20T15:33:22.219Z,92
2023-01-20T15:43:24.002Z,91
2023-01-20T15:53:26.679Z,90
2023-01-20T16:03:28.555Z,91
2023-01-20T16:13:31.241Z,91
2023-01-20T16:23:32.936Z,92
2023-01-20T16:33:34.911Z,93
2023-01-20T16:43:36.985Z,95
2023-01-20T16:53:38.941Z,97
2023-01-20T17:03:41.064Z,98
2023-01-20T17:13:42.768Z,99
2023-01-20T17:23:44.493Z,100
2023-01-20T17:33:46.507Z,100
2023-01-20T17:43:48.895Z,100
2023-01-20T17:53:50.676Z,100
2023-01-20T18:03:53.296Z,100
2023-01-20T18:13:55.955Z,100
2023-01-20T18:23:57.701Z,100
2023-01-20T18:34:00.052Z,100
2023-01-20T18:44:01.947Z,100
2023-01-20T18:54:03.695Z,100
2023-01-20T19:04:05.492Z,100
2023-01-20T19:14:07.246Z,100
2023-01-20T19:24:09.031Z,100
2023-01-20T19:34:10.840Z,100
2023-01-20T19:44:13.151Z,100
2023-01-20T19:54:14.972Z,100
2023-01-20T20:04:17.140Z,100
2023-01-20T20:14:19.794Z,100
2023-01-20T20:24:21.447Z,100
2023-01-20T20:34:23.627Z,100
2023-01-20T20:44:25.999Z,100
2023-01-20T20:54:28.290Z,100
2023-01-20T21:04:30.692Z,100
2023-01-20T21:14:32.415Z,100
2023-01-20T21:24:34.201Z,100
2023-01-20T21:34:36.332Z,100
2023-01-20T21:44:38.627Z,100
2023-01-20T21:54:40.505Z,100
2023-01-20T22:04:43.122Z,100
2023-01-20T22:14:45.644Z,100
2023-01-20T22:24:48.249Z,100
2023-01-20T22:34:50.960Z,100
2023-01-20T22:54:55.169Z,100
2023-01-20T23:04:57.480Z,100
2023-01-20T23:14:59.415Z,100
2023-01-20T23:25:01.986Z,100
2023-01-20T23:35:04.399Z,100
2023-01-20T23:45:06.721Z,100
